createdAt,value
2023-04-29T00:00:00.000Z,1.01
2023-04-29T00:15:00.000Z,1.05
2023-04-29T00:30:00.000Z,1.01
2023-04-29T00:45:00.000Z,1
2023-04-29T01:00:00.000Z,1
2023-04-29T01:15:00.000Z,1.02
2023-04-29T01:30:00.000Z,1.06
2023-04-29T01:45:00.000Z,1.01
2023-04-29T02:00:00.000Z,1.06
2023-04-29T02:15:00.000Z,1.06
2023-04-29T02:30:00.000Z,1.11
2023-04-29T02:45:00.000Z,1.04
2023-04-29T03:00:00.000Z,1.07
2023-04-29T03:15:00.000Z,1.05
2023-04-29T03:30:00.000Z,1.06
2023-04-29T03:45:00.000Z,1.05
2023-04-29T04:00:00.000Z,1.07
2023-04-29T04:15:00.000Z,1.13
2023-04-29T04:30:00.000Z,1.12
2023-04-29T04:45:00.000Z,1.11
2023-04-29T05:00:00.000Z,1.12
2023-04-29T05:15:00.000Z,1.15
2023-04-29T05:30:00.000Z,1.13
2023-04-29T05:45:00.000Z,1.12
2023-04-29T06:00:00.000Z,1.12
2023-04-29T06:15:00.000Z,1.14
2023-04-29T06:30:00.000Z,1.48
2023-04-29T06:45:00.000Z,1.59
2023-04-29T07:00:00.000Z,1.33
2023-04-29T07:15:00.000Z,1.33
2023-04-29T07:30:00.000Z,1.47
2023-04-29T07:45:00.000Z,1.24
2023-04-29T08:00:00.000Z,1.29
2023-04-29T08:15:00.000Z,1.32
2023-04-29T08:30:00.000Z,1.22
2023-04-29T08:45:00.000Z,1.58
2023-04-29T09:00:00.000Z,7.53
2023-04-29T09:15:00.000Z,6.4
2023-04-29T09:30:00.000Z,4.46
2023-04-29T09:45:00.000Z,3.11
2023-04-29T10:00:00.000Z,2.51
2023-04-29T10:15:00.000Z,1.49
2023-04-29T10:30:00.000Z,1.38
2023-04-29T10:45:00.000Z,2.21
2023-04-29T11:00:00.000Z,2.24
2023-04-29T11:15:00.000Z,2.59
2023-04-29T11:30:00.000Z,3.19
2023-04-29T11:45:00.000Z,6.56
2023-04-29T12:00:00.000Z,3.39
2023-04-29T12:15:00.000Z,1.41
2023-04-29T12:30:00.000Z,2.92
2023-04-29T12:45:00.000Z,2.14
2023-04-29T13:00:00.000Z,3.35
2023-04-29T13:15:00.000Z,4.45
2023-04-29T13:30:00.000Z,3.91
2023-04-29T13:45:00.000Z,3.49
2023-04-29T14:00:00.000Z,3.13
2023-04-29T14:15:00.000Z,2.33
2023-04-29T14:30:00.000Z,1.93
2023-04-29T14:45:00.000Z,2.88
2023-04-29T15:00:00.000Z,1.6
2023-04-29T15:15:00.000Z,1.99
2023-04-29T15:30:00.000Z,1.65
2023-04-29T15:45:00.000Z,1.45
2023-04-29T16:00:00.000Z,1.61
2023-04-29T16:15:00.000Z,2.16
2023-04-29T16:30:00.000Z,2.24
2023-04-29T16:45:00.000Z,3.32
2023-04-29T17:00:00.000Z,4.34
2023-04-29T17:15:00.000Z,3.8
2023-04-29T17:30:00.000Z,3.44
2023-04-29T17:45:00.000Z,3.28
2023-04-29T18:00:00.000Z,3.96
2023-04-29T18:15:00.000Z,3.49
2023-04-29T18:30:00.000Z,4.58
2023-04-29T18:45:00.000Z,4.51
2023-04-29T19:00:00.000Z,5.21
2023-04-29T19:15:00.000Z,5.38
2023-04-29T19:30:00.000Z,5.45
2023-04-29T19:45:00.000Z,5.58
2023-04-29T20:00:00.000Z,7.46
2023-04-29T20:15:00.000Z,8.11
2023-04-29T20:30:00.000Z,7.59
2023-04-29T20:45:00.000Z,8.22
2023-04-29T21:00:00.000Z,9.27
2023-04-29T21:15:00.000Z,9.65
2023-04-29T21:30:00.000Z,8.49
2023-04-29T21:45:00.000Z,10.64
2023-04-29T22:00:00.000Z,10.89
2023-04-29T22:15:00.000Z,7.22
2023-04-29T22:30:00.000Z,7.05
2023-04-29T22:45:00.000Z,6.69
2023-04-29T23:00:00.000Z,7.01
2023-04-29T23:15:00.000Z,7.44
2023-04-29T23:30:00.000Z,7.08
2023-04-29T23:45:00.000Z,8.73
